createdAt,value
2019-01-18T00:01:00.406Z,2.24
2019-01-18T00:07:06.479Z,2.26
2019-01-18T00:13:13.998Z,2.28
2019-01-18T00:19:19.983Z,2.26
2019-01-18T00:25:26.161Z,2.24
2019-01-18T00:31:32.469Z,2.26
2019-01-18T00:37:38.659Z,2.23
2019-01-18T00:43:44.919Z,2.17
2019-01-18T00:49:50.723Z,2.13
2019-01-18T00:55:56.456Z,2.14
2019-01-18T01:02:02.473Z,2.10
2019-01-18T01:08:08.497Z,2.02
2019-01-18T01:14:14.392Z,2.02
2019-01-18T01:20:22.624Z,1.91
2019-01-18T01:26:28.601Z,1.84
2019-01-18T01:32:35.775Z,1.76
2019-01-18T01:38:41.517Z,1.74
2019-01-18T01:44:47.257Z,1.67
2019-01-18T01:50:52.969Z,1.60
2019-01-18T01:56:58.853Z,1.52
2019-01-18T02:03:08.224Z,1.48
2019-01-18T02:09:14.004Z,1.45
2019-01-18T02:15:23.196Z,1.40
2019-01-18T02:21:29.137Z,1.36
2019-01-18T02:27:35.122Z,1.32
2019-01-18T02:33:41.293Z,1.39
2019-01-18T02:39:47.270Z,1.41
2019-01-18T02:45:55.853Z,1.52
2019-01-18T02:52:01.713Z,1.47
2019-01-18T02:58:08.985Z,1.37
2019-01-18T03:04:16.752Z,1.27
2019-01-18T03:10:31.271Z,1.25
2019-01-18T03:16:37.760Z,1.17
2019-01-18T03:22:43.988Z,1.04
2019-01-18T03:28:49.749Z,0.97
2019-01-18T03:34:55.695Z,0.88
2019-01-18T03:41:01.742Z,0.72
2019-01-18T03:47:08.040Z,0.66
2019-01-18T03:53:13.742Z,0.69
2019-01-18T03:59:19.789Z,0.75
2019-01-18T04:05:26.286Z,0.79
2019-01-18T04:11:32.441Z,0.78
2019-01-18T04:17:39.528Z,0.77
2019-01-18T04:23:47.871Z,0.79
2019-01-18T04:29:53.907Z,0.64
2019-01-18T04:35:59.803Z,0.47
2019-01-18T04:42:05.929Z,0.30
2019-01-18T04:48:12.460Z,0.14
2019-01-18T04:54:18.266Z,0.01
2019-01-18T05:00:26.928Z,-0.02
2019-01-18T05:06:34.274Z,-0.06
2019-01-18T05:12:40.500Z,-0.09
2019-01-18T05:18:46.449Z,-0.13
2019-01-18T05:24:55.063Z,-0.12
2019-01-18T05:31:01.544Z,-0.13
2019-01-18T05:37:07.275Z,-0.15
2019-01-18T05:43:13.106Z,-0.20
2019-01-18T05:49:19.348Z,-0.40
2019-01-18T05:55:28.406Z,-0.57
2019-01-18T06:01:34.340Z,-0.67
2019-01-18T06:07:40.269Z,-0.68
2019-01-18T06:13:46.105Z,-0.72
2019-01-18T06:19:53.373Z,-0.65
2019-01-18T06:25:59.141Z,-0.58
2019-01-18T06:32:05.271Z,-0.67
2019-01-18T06:38:11.193Z,-0.65
2019-01-18T06:44:16.922Z,-0.49
2019-01-18T06:50:23.460Z,-0.38
2019-01-18T06:56:33.659Z,-0.26
2019-01-18T07:02:41.326Z,-0.09
2019-01-18T07:08:47.399Z,0.13
2019-01-18T07:14:53.500Z,0.35
2019-01-18T07:21:02.560Z,0.51
2019-01-18T07:27:08.643Z,0.57
2019-01-18T07:33:18.697Z,0.63
2019-01-18T07:39:24.428Z,0.70
2019-01-18T07:45:33.103Z,0.80
2019-01-18T07:51:39.016Z,0.80
2019-01-18T07:57:44.988Z,0.78
2019-01-18T08:03:50.758Z,0.87
2019-01-18T08:09:56.563Z,0.98
2019-01-18T08:16:02.389Z,1.08
2019-01-18T08:22:08.381Z,1.12
2019-01-18T08:28:14.552Z,1.06
2019-01-18T08:34:20.350Z,1.10
2019-01-18T08:40:36.047Z,1.17
2019-01-18T08:46:42.302Z,1.26
2019-01-18T08:52:48.424Z,1.02
2019-01-18T08:58:54.504Z,0.89
2019-01-18T09:05:06.049Z,0.97
2019-01-18T09:11:11.861Z,1.18
2019-01-18T09:17:17.913Z,1.27
2019-01-18T09:23:23.694Z,1.32
2019-01-18T09:29:29.633Z,1.49
2019-01-18T09:35:36.337Z,1.55
2019-01-18T09:41:42.495Z,1.52
2019-01-18T09:47:50.018Z,1.63
2019-01-18T09:53:58.699Z,1.66
2019-01-18T10:00:06.510Z,1.74
2019-01-18T10:06:12.427Z,1.83
2019-01-18T10:12:18.277Z,1.94
2019-01-18T10:18:26.330Z,2.16
2019-01-18T10:24:32.760Z,2.24
2019-01-18T10:30:40.750Z,2.25
2019-01-18T10:36:47.012Z,2.42
2019-01-18T10:42:56.516Z,2.60
2019-01-18T10:49:02.767Z,2.71
2019-01-18T10:55:09.644Z,2.87
2019-01-18T11:01:17.283Z,2.98
2019-01-18T11:07:25.009Z,3.21
2019-01-18T11:13:33.808Z,3.21
2019-01-18T11:19:39.578Z,3.26
2019-01-18T11:25:45.718Z,3.26
2019-01-18T11:31:51.761Z,3.46
2019-01-18T11:37:59.920Z,3.56
2019-01-18T11:44:17.193Z,3.66
2019-01-18T11:50:27.785Z,3.74
2019-01-18T11:56:33.743Z,3.73
2019-01-18T12:02:39.970Z,3.87
2019-01-18T12:08:48.368Z,3.80
2019-01-18T12:14:54.282Z,3.77
2019-01-18T12:21:00.264Z,3.83
2019-01-18T12:27:06.489Z,4.05
2019-01-18T12:33:12.439Z,4.26
2019-01-18T12:39:40.251Z,4.24
2019-01-18T12:45:47.030Z,4.23
2019-01-18T12:51:53.023Z,4.22
2019-01-18T12:57:58.956Z,4.12
2019-01-18T13:04:08.254Z,4.02
2019-01-18T13:10:12.652Z,3.84
2019-01-18T13:16:33.072Z,3.88
2019-01-18T13:22:38.930Z,3.98
2019-01-18T13:28:44.807Z,4.01
2019-01-18T13:34:50.868Z,3.98
2019-01-18T13:40:56.854Z,4.00
2019-01-18T13:47:02.936Z,4.03
2019-01-18T13:53:08.852Z,4.00
2019-01-18T13:59:14.819Z,3.93
2019-01-18T14:05:26.135Z,3.90
2019-01-18T14:11:34.753Z,3.84
2019-01-18T14:17:40.656Z,3.78
2019-01-18T14:23:46.449Z,3.70
2019-01-18T14:29:52.613Z,3.63
2019-01-18T14:35:58.549Z,3.51
2019-01-18T14:42:06.094Z,3.44
2019-01-18T14:48:14.950Z,3.35
2019-01-18T14:54:22.997Z,3.21
2019-01-18T15:00:33.534Z,3.10
2019-01-18T15:06:39.520Z,3.03
2019-01-18T15:12:49.106Z,2.89
2019-01-18T15:18:58.006Z,2.81
2019-01-18T15:25:03.844Z,2.73
2019-01-18T15:31:09.592Z,2.64
2019-01-18T15:37:15.492Z,2.57
2019-01-18T15:43:22.992Z,2.52
2019-01-18T15:49:29.840Z,2.40
2019-01-18T15:55:37.153Z,2.27
2019-01-18T16:01:43.054Z,2.08
2019-01-18T16:07:48.800Z,1.96
2019-01-18T16:13:54.613Z,1.84
2019-01-18T16:20:02.308Z,1.73
2019-01-18T16:26:08.249Z,1.68
2019-01-18T16:32:14.426Z,1.64
2019-01-18T16:38:20.198Z,1.56
2019-01-18T16:44:26.027Z,1.56
2019-01-18T16:50:31.798Z,1.50
2019-01-18T16:56:37.609Z,1.42
2019-01-18T17:02:45.312Z,1.30
2019-01-18T17:08:52.611Z,1.23
2019-01-18T17:14:59.057Z,1.22
2019-01-18T17:21:06.098Z,1.15
2019-01-18T17:27:11.940Z,1.07
2019-01-18T17:33:17.970Z,0.98
2019-01-18T17:40:23.320Z,0.95
2019-01-18T17:47:31.602Z,0.93
2019-01-18T17:54:07.970Z,0.83
2019-01-18T18:01:30.919Z,0.80
2019-01-18T18:08:27.519Z,0.71
2019-01-18T18:15:15.749Z,0.75
2019-01-18T18:22:26.056Z,0.79
2019-01-18T18:29:30.922Z,0.84
2019-01-18T18:36:49.355Z,0.83
2019-01-18T18:43:42.428Z,0.84
2019-01-18T18:50:59.011Z,0.82
2019-01-18T18:58:09.084Z,0.85
2019-01-18T19:05:10.492Z,0.88
2019-01-18T19:11:48.425Z,0.83
2019-01-18T19:19:11.072Z,0.82
2019-01-18T19:25:58.211Z,0.86
2019-01-18T19:32:49.550Z,0.90
2019-01-18T19:39:39.399Z,0.93
2019-01-18T19:46:44.017Z,0.93
2019-01-18T19:53:20.870Z,0.91
2019-01-18T20:00:37.167Z,0.89
2019-01-18T20:07:41.550Z,0.88
2019-01-18T20:14:28.299Z,0.90
2019-01-18T20:21:31.500Z,0.88
2019-01-18T20:28:36.917Z,0.88
2019-01-18T20:35:47.458Z,0.90
2019-01-18T20:42:59.839Z,0.94
2019-01-18T20:49:49.238Z,0.99
2019-01-18T20:56:47.707Z,1.03
2019-01-18T21:03:32.419Z,1.04
2019-01-18T21:10:39.118Z,1.03
2019-01-18T21:17:45.266Z,1.03
2019-01-18T21:24:34.616Z,0.92
2019-01-18T21:31:23.139Z,0.78
2019-01-18T21:38:43.074Z,0.71
2019-01-18T21:45:47.577Z,0.72
2019-01-18T21:53:22.842Z,0.68
2019-01-18T22:00:34.976Z,0.64
2019-01-18T22:07:24.124Z,0.59
2019-01-18T22:14:30.720Z,0.58
2019-01-18T22:21:43.779Z,0.57
2019-01-18T22:28:43.577Z,0.41
2019-01-18T22:35:38.535Z,0.37
2019-01-18T22:42:44.312Z,0.38
2019-01-18T22:49:34.681Z,0.38
2019-01-18T22:56:10.070Z,0.36
2019-01-18T23:02:43.675Z,0.32
2019-01-18T23:09:29.859Z,0.18
2019-01-18T23:16:39.255Z,0.12
2019-01-18T23:23:20.946Z,0.11
2019-01-18T23:29:59.283Z,0.12
2019-01-18T23:36:54.905Z,0.14
2019-01-18T23:43:39.920Z,0.11
2019-01-18T23:50:55.749Z,0.02
2019-01-18T23:57:57.716Z,0.08
